createdAt,value
2024-04-21T00:01:03.072Z,49.89
2024-04-21T00:03:30.196Z,50.06
2024-04-21T00:05:58.852Z,50.11
2024-04-21T00:08:25.835Z,49.91
2024-04-21T00:10:52.833Z,49.63
2024-04-21T00:13:19.896Z,49.10
2024-04-21T00:15:46.941Z,49.69
2024-04-21T00:18:13.975Z,49.50
2024-04-21T00:20:40.868Z,50.25
2024-04-21T00:23:07.843Z,50.22
2024-04-21T00:25:34.848Z,49.51
2024-04-21T00:28:01.928Z,48.30
2024-04-21T00:30:29.462Z,48.43
2024-04-21T00:32:56.876Z,48.77
2024-04-21T00:35:24.310Z,48.64
2024-04-21T00:37:51.662Z,48.88
2024-04-21T00:40:22.504Z,48.65
2024-04-21T00:42:51.499Z,48.30
2024-04-21T00:45:26.445Z,48.78
2024-04-21T00:47:59.198Z,48.78
2024-04-21T00:50:26.679Z,49.21
2024-04-21T00:52:54.054Z,49.30
2024-04-21T00:55:21.523Z,50.19
2024-04-21T00:57:49.114Z,50.37
2024-04-21T01:00:16.496Z,50.28
2024-04-21T06:32:51.051Z,59.50
2024-04-21T06:35:18.388Z,58.14
2024-04-21T06:37:45.725Z,56.17
2024-04-21T06:40:15.536Z,55.13
2024-04-21T06:42:44.172Z,53.75
2024-04-21T06:45:11.533Z,52.62
2024-04-21T06:47:38.997Z,51.65
2024-04-21T06:50:06.443Z,50.29
2024-04-21T06:52:33.817Z,49.59
2024-04-21T06:55:01.241Z,49.09
2024-04-21T06:57:28.621Z,49.91
2024-04-21T06:59:55.924Z,48.99
2024-04-21T07:02:22.907Z,47.23
2024-04-21T07:04:49.824Z,47.40
2024-04-21T07:07:16.733Z,47.81
2024-04-21T07:09:43.708Z,48.35
2024-04-21T07:12:10.651Z,48.36
2024-04-21T07:14:37.568Z,48.69
2024-04-21T07:17:04.491Z,48.20
2024-04-21T07:19:31.402Z,48.69
2024-04-21T07:21:58.353Z,48.78
2024-04-21T07:24:25.288Z,50.31
2024-04-21T07:26:52.217Z,49.88
2024-04-21T07:29:19.145Z,50.63
2024-04-21T07:31:46.142Z,50.74
2024-04-21T07:34:13.254Z,50.83
2024-04-21T07:36:40.224Z,50.28
2024-04-21T07:39:07.133Z,50.09
2024-04-21T07:41:33.978Z,50.25
2024-04-21T07:44:00.842Z,51.53
2024-04-21T07:46:27.683Z,51.00
2024-04-21T07:48:54.600Z,51.47
2024-04-21T07:51:21.529Z,51.95
2024-04-21T07:53:48.399Z,54.13
2024-04-21T07:56:15.260Z,53.47
2024-04-21T07:58:42.112Z,54.92
2024-04-21T08:01:09.649Z,54.92
2024-04-21T08:03:37.259Z,54.55
2024-04-21T08:06:04.767Z,54.83
2024-04-21T08:08:32.122Z,55.02
2024-04-21T08:11:04.490Z,54.01
2024-04-21T08:13:32.762Z,55.24
2024-04-21T08:16:00.219Z,56.60
2024-04-21T08:18:27.723Z,55.16
2024-04-21T08:20:55.090Z,54.63
2024-04-21T08:23:22.429Z,56.25
2024-04-21T08:25:49.771Z,55.56
2024-04-21T08:28:17.111Z,54.17
2024-04-21T08:30:44.411Z,55.07
2024-04-21T08:33:11.881Z,54.52
2024-04-21T08:35:39.342Z,55.14
2024-04-21T08:38:07.127Z,54.58
2024-04-21T08:40:34.805Z,54.90
2024-04-21T08:43:02.251Z,55.35
2024-04-21T08:45:29.639Z,55.67
2024-04-21T08:47:57.165Z,55.06
2024-04-21T08:50:24.556Z,53.85
2024-04-21T08:52:54.926Z,54.08
2024-04-21T08:55:22.344Z,53.37
2024-04-21T08:57:49.809Z,53.98
2024-04-21T09:00:17.206Z,53.72
2024-04-21T09:02:44.550Z,53.36
2024-04-21T09:05:12.101Z,52.56
2024-04-21T09:07:39.446Z,53.95
2024-04-21T09:10:06.920Z,53.75
2024-04-21T09:12:34.344Z,54.78
2024-04-21T09:15:01.802Z,53.15
2024-04-21T09:17:31.262Z,53.48
2024-04-21T09:20:01.900Z,52.79
2024-04-21T09:22:35.611Z,52.79
2024-04-21T09:25:03.061Z,52.68
2024-04-21T09:27:30.005Z,52.44
2024-04-21T09:29:56.940Z,53.15
2024-04-21T09:32:23.857Z,52.74
2024-04-21T09:34:50.797Z,53.33
2024-04-21T09:37:17.744Z,53.70
2024-04-21T09:39:44.764Z,52.79
2024-04-21T09:42:11.809Z,50.79
2024-04-21T09:44:38.850Z,50.09
2024-04-21T09:47:05.932Z,49.63
2024-04-21T09:49:36.445Z,50.36
2024-04-21T09:52:03.643Z,48.55
2024-04-21T09:54:30.597Z,48.64
2024-04-21T09:56:57.510Z,49.40
2024-04-21T09:59:24.424Z,49.38
2024-04-21T10:01:51.452Z,48.82
2024-04-21T10:04:18.358Z,48.01
2024-04-21T10:06:45.276Z,48.31
2024-04-21T10:09:12.143Z,49.45
2024-04-21T10:11:39.006Z,51.20
2024-04-21T10:14:05.885Z,51.57
2024-04-21T10:16:33.186Z,52.88
2024-04-21T10:19:01.103Z,55.43
2024-04-21T10:21:28.385Z,55.40
2024-04-21T10:23:56.055Z,53.33
2024-04-21T10:26:23.326Z,53.66
2024-04-21T10:28:50.635Z,55.56
2024-04-21T10:31:17.947Z,55.18
2024-04-21T10:33:47.804Z,54.95
2024-04-21T10:36:15.086Z,54.44
2024-04-21T10:38:42.386Z,54.25
2024-04-21T10:41:09.748Z,55.97
2024-04-21T10:43:37.043Z,56.20
2024-04-21T10:46:04.390Z,51.61
2024-04-21T10:48:31.875Z,51.72
2024-04-21T10:50:59.199Z,51.16
2024-04-21T10:53:26.522Z,52.40
2024-04-21T10:55:55.323Z,51.69
2024-04-21T10:58:23.153Z,51.23
2024-04-21T11:00:50.682Z,52.87
2024-04-21T11:03:18.001Z,52.22
2024-04-21T11:05:45.339Z,49.63
2024-04-21T11:08:14.908Z,46.64
2024-04-21T11:10:42.239Z,45.80
2024-04-21T11:13:09.633Z,45.89
2024-04-21T11:15:36.967Z,45.93
2024-04-21T11:18:04.401Z,46.58
2024-04-21T11:20:31.758Z,48.11
2024-04-21T11:22:59.105Z,50.04
2024-04-21T11:25:26.634Z,50.15
2024-04-21T11:27:54.058Z,49.41
2024-04-21T11:30:21.415Z,52.56
2024-04-21T11:32:48.988Z,51.86
2024-04-21T11:35:16.470Z,52.48
2024-04-21T11:37:43.944Z,51.30
2024-04-21T11:40:11.278Z,53.58
2024-04-21T11:42:38.710Z,51.85
2024-04-21T11:45:06.021Z,53.32
2024-04-21T11:47:33.425Z,53.48
2024-04-21T11:50:00.856Z,54.17
2024-04-21T11:52:28.407Z,56.66
2024-04-21T11:54:55.918Z,54.18
2024-04-21T11:57:23.442Z,51.93
2024-04-21T11:59:50.814Z,51.39
2024-04-21T12:02:18.220Z,52.27
2024-04-21T12:04:45.890Z,51.08
2024-04-21T12:07:13.449Z,51.18
2024-04-21T12:09:40.805Z,50.66
2024-04-21T12:12:08.172Z,50.66
2024-04-21T12:14:35.466Z,47.71
2024-04-21T12:17:02.841Z,46.51
2024-04-21T12:19:30.305Z,44.84
2024-04-21T12:21:57.688Z,44.59
2024-04-21T12:24:25.051Z,41.39
2024-04-21T12:26:52.333Z,43.79
2024-04-21T12:29:19.701Z,42.89
2024-04-21T12:31:47.003Z,36.22
2024-04-21T12:34:14.359Z,35.68
2024-04-21T12:36:43.275Z,30.93
2024-04-21T12:39:10.901Z,29.94
2024-04-21T12:41:38.227Z,28.57
2024-04-21T12:44:05.544Z,23.96
2024-04-21T12:46:32.963Z,26.20
2024-04-21T12:49:00.447Z,24.59
2024-04-21T12:51:27.772Z,22.99
2024-04-21T12:53:55.126Z,21.38
2024-04-21T12:56:22.485Z,24.71
2024-04-21T12:58:49.793Z,22.42
2024-04-21T13:01:17.539Z,22.34
2024-04-21T13:03:45.974Z,24.62
2024-04-21T13:06:13.146Z,26.55
2024-04-21T13:08:40.105Z,27.86
2024-04-21T13:11:07.036Z,28.68
2024-04-21T13:13:33.948Z,29.92
2024-04-21T13:16:00.994Z,30.14
2024-04-21T13:18:27.992Z,29.81
2024-04-21T13:20:54.852Z,30.43
2024-04-21T13:23:21.738Z,31.98
2024-04-21T13:25:48.598Z,30.47
2024-04-21T13:28:15.476Z,28.84
2024-04-21T13:30:42.447Z,26.42
2024-04-21T13:33:09.537Z,30.60
2024-04-21T13:35:36.642Z,26.33
2024-04-21T13:38:03.965Z,25.34
2024-04-21T13:40:30.888Z,24.35
2024-04-21T13:42:57.888Z,24.66
2024-04-21T13:45:24.765Z,26.52
2024-04-21T13:47:51.619Z,26.79
2024-04-21T13:50:18.482Z,26.94
2024-04-21T13:52:45.420Z,27.55
2024-04-21T13:55:12.359Z,28.67
2024-04-21T13:57:39.244Z,28.36
2024-04-21T14:00:06.128Z,30.21
2024-04-21T14:11:29.928Z,25.33
2024-04-21T14:13:57.366Z,26.15
2024-04-21T14:16:24.728Z,25.71
2024-04-21T14:18:53.119Z,24.61
2024-04-21T14:21:21.332Z,24.31
2024-04-21T14:23:48.721Z,23.56
2024-04-21T14:26:16.047Z,24.10
2024-04-21T14:28:43.386Z,23.18
2024-04-21T14:31:10.758Z,23.17
2024-04-21T14:33:38.185Z,23.77
2024-04-21T14:36:05.563Z,24.22
2024-04-21T14:38:32.926Z,21.64
2024-04-21T14:41:00.213Z,24.96
2024-04-21T14:43:27.650Z,26.97
2024-04-21T14:45:54.945Z,26.47
2024-04-21T14:48:22.292Z,28.40
2024-04-21T14:50:49.556Z,27.00
2024-04-21T14:53:16.876Z,27.82
2024-04-21T14:55:44.204Z,27.39
2024-04-21T14:58:11.545Z,27.44
2024-04-21T15:00:38.918Z,24.19
2024-04-21T15:03:06.624Z,21.98
2024-04-21T15:05:34.685Z,20.80
2024-04-21T15:08:02.028Z,18.75
2024-04-21T15:10:29.398Z,18.65
2024-04-21T15:12:56.791Z,17.93
2024-04-21T15:15:24.183Z,17.16
2024-04-21T15:17:55.061Z,17.49
2024-04-21T15:20:23.026Z,17.60
2024-04-21T15:22:50.364Z,15.47
2024-04-21T15:25:17.661Z,15.54
2024-04-21T15:27:44.944Z,14.82
2024-04-21T15:30:12.263Z,16.46
2024-04-21T15:32:39.255Z,14.49
2024-04-21T15:35:06.244Z,16.61
2024-04-21T15:37:33.167Z,15.90
2024-04-21T15:40:00.179Z,13.95
2024-04-21T15:42:27.208Z,13.66
2024-04-21T15:44:54.037Z,13.60
2024-04-21T15:47:21.047Z,14.04
2024-04-21T15:49:48.264Z,13.95
2024-04-21T15:52:15.332Z,13.90
2024-04-21T15:54:42.225Z,18.78
2024-04-21T15:57:09.018Z,24.09
2024-04-21T15:59:35.942Z,29.23
2024-04-21T16:02:02.862Z,25.37
2024-04-21T16:04:29.776Z,19.65
2024-04-21T16:06:56.758Z,21.40
2024-04-21T16:09:23.898Z,19.01
2024-04-21T16:11:50.770Z,18.67
2024-04-21T16:14:17.626Z,15.83
2024-04-21T16:16:44.676Z,22.66
2024-04-21T16:19:11.630Z,20.36
2024-04-21T16:21:38.553Z,19.24
2024-04-21T16:24:05.464Z,19.17
2024-04-21T16:26:32.512Z,20.49
2024-04-21T16:28:59.384Z,19.24
2024-04-21T16:31:26.688Z,19.62
2024-04-21T16:33:56.547Z,19.00
2024-04-21T16:36:23.872Z,20.09
2024-04-21T16:38:50.811Z,21.00
2024-04-21T16:41:17.689Z,23.73
2024-04-21T16:43:44.560Z,26.93
2024-04-21T16:46:11.410Z,27.79
2024-04-21T16:48:38.328Z,29.18
2024-04-21T16:51:11.954Z,29.69
2024-04-21T16:53:58.092Z,30.37
2024-04-21T16:56:25.266Z,32.39
2024-04-21T16:58:52.185Z,33.03
2024-04-21T17:01:19.131Z,32.36
2024-04-21T17:03:46.017Z,30.22
2024-04-21T17:06:12.966Z,32.28
2024-04-21T17:08:39.825Z,32.42
2024-04-21T17:11:06.740Z,32.13
2024-04-21T17:13:33.743Z,30.36
2024-04-21T17:16:00.786Z,28.99
2024-04-21T17:18:27.827Z,28.20
2024-04-21T17:20:54.767Z,30.30
2024-04-21T17:23:21.625Z,32.61
2024-04-21T17:25:48.486Z,34.47
2024-04-21T17:28:15.387Z,37.08
2024-04-21T17:30:42.245Z,36.30
2024-04-21T17:33:09.335Z,30.85
2024-04-21T17:35:36.247Z,28.16
2024-04-21T17:38:03.527Z,29.28
2024-04-21T17:40:30.852Z,27.38
2024-04-21T17:42:58.210Z,29.14
2024-04-21T17:45:25.585Z,29.47
2024-04-21T17:47:52.927Z,29.16
2024-04-21T17:50:20.326Z,30.00
2024-04-21T17:52:47.644Z,30.67
2024-04-21T17:55:14.991Z,33.02
2024-04-21T17:57:42.309Z,36.23
2024-04-21T18:00:09.692Z,39.52
2024-04-21T18:02:37.050Z,40.80
2024-04-21T18:05:04.417Z,42.98
2024-04-21T18:07:31.757Z,42.33
2024-04-21T18:10:03.978Z,45.41
2024-04-21T18:12:31.844Z,48.06
2024-04-21T18:14:59.185Z,50.75
2024-04-21T18:17:28.190Z,53.87
2024-04-21T18:19:55.767Z,56.27
2024-04-21T18:22:23.184Z,55.78
2024-04-21T18:24:50.642Z,56.22
2024-04-21T18:27:17.977Z,56.90
2024-04-21T18:29:45.300Z,55.03
2024-04-21T18:32:12.727Z,54.97
2024-04-21T18:34:40.129Z,53.72
2024-04-21T18:37:07.940Z,53.74
2024-04-21T18:39:35.948Z,53.66
2024-04-21T18:42:03.900Z,52.66
2024-04-21T18:44:32.928Z,52.61
2024-04-21T18:47:00.567Z,52.84
2024-04-21T18:49:28.142Z,53.00
2024-04-21T18:51:55.444Z,52.09
2024-04-21T18:54:22.754Z,51.51
2024-04-21T18:56:50.031Z,51.14
2024-04-21T18:59:17.325Z,51.05
2024-04-21T19:01:44.751Z,51.16
2024-04-21T19:04:12.255Z,49.09
2024-04-21T19:06:39.640Z,49.30
2024-04-21T19:09:07.008Z,48.89
2024-04-21T19:11:34.565Z,49.50
2024-04-21T19:14:02.151Z,50.02
2024-04-21T19:16:29.440Z,48.74
2024-04-21T19:18:56.858Z,49.62
2024-04-21T19:21:24.310Z,48.84
2024-04-21T19:23:51.599Z,48.03
2024-04-21T19:26:18.963Z,47.94
2024-04-21T19:28:45.824Z,47.99
2024-04-21T19:31:12.740Z,49.41
2024-04-21T19:33:39.672Z,48.47
2024-04-21T19:36:06.486Z,48.24
2024-04-21T19:38:33.401Z,47.30
2024-04-21T19:41:00.544Z,47.28
2024-04-21T19:43:27.455Z,48.08
2024-04-21T19:45:56.773Z,48.43
2024-04-21T19:48:24.197Z,49.04
2024-04-21T19:50:51.122Z,48.25
2024-04-21T19:53:17.955Z,48.49
2024-04-21T19:55:44.870Z,48.33
2024-04-21T19:58:11.750Z,50.83
2024-04-21T20:00:38.614Z,50.80
2024-04-21T20:03:05.572Z,50.62
2024-04-21T20:05:32.551Z,51.77
2024-04-21T20:07:59.607Z,51.52
2024-04-21T20:10:26.992Z,51.84
2024-04-21T20:12:54.275Z,52.41
2024-04-21T20:15:21.136Z,50.69
2024-04-21T20:17:48.085Z,51.66
2024-04-21T20:20:15.085Z,52.02
2024-04-21T20:22:42.007Z,51.55
2024-04-21T20:25:09.001Z,51.52
2024-04-21T20:27:36.547Z,51.97
2024-04-21T20:30:03.893Z,51.86
2024-04-21T20:32:31.355Z,51.65
2024-04-21T20:34:58.955Z,51.36
2024-04-21T20:37:25.984Z,50.98
2024-04-21T20:39:52.853Z,50.94
2024-04-21T20:42:19.715Z,51.19
2024-04-21T20:44:46.543Z,50.51
2024-04-21T20:47:13.465Z,50.58
2024-04-21T20:49:40.339Z,50.44
2024-04-21T20:52:07.309Z,51.38
2024-04-21T20:54:34.201Z,51.25
2024-04-21T20:57:01.023Z,51.00
2024-04-21T20:59:27.925Z,52.01
2024-04-21T21:01:54.808Z,51.24
2024-04-21T21:04:21.763Z,51.99
2024-04-21T21:06:48.667Z,52.73
2024-04-21T21:09:15.486Z,53.24
2024-04-21T21:11:42.395Z,54.09
2024-04-21T21:14:09.274Z,52.66
2024-04-21T21:16:36.212Z,53.08
2024-04-21T21:19:03.187Z,53.68
2024-04-21T21:21:30.105Z,53.64
2024-04-21T21:23:56.984Z,53.94
2024-04-21T21:26:23.867Z,53.42
2024-04-21T21:28:50.725Z,54.19
2024-04-21T21:31:17.616Z,54.72
2024-04-21T21:33:44.522Z,54.36
2024-04-21T21:36:11.814Z,55.18
2024-04-21T21:38:39.132Z,56.21
2024-04-21T21:41:06.440Z,57.05
2024-04-21T21:43:33.964Z,55.42
2024-04-21T21:46:01.641Z,55.82
2024-04-21T21:48:31.713Z,54.40
2024-04-21T21:50:59.212Z,54.39
2024-04-21T21:53:26.646Z,54.20
2024-04-21T21:55:53.974Z,55.25
2024-04-21T21:58:21.397Z,55.46
2024-04-21T22:00:48.793Z,54.55
2024-04-21T22:03:16.324Z,54.90
2024-04-21T22:05:43.790Z,54.31
2024-04-21T22:08:11.181Z,56.06
2024-04-21T22:10:38.565Z,55.49
2024-04-21T22:13:06.173Z,55.93
2024-04-21T22:15:33.577Z,56.94
2024-04-21T22:18:01.039Z,56.49
2024-04-21T22:20:28.517Z,56.67
2024-04-21T22:22:55.891Z,56.64
2024-04-21T22:25:23.169Z,56.41
2024-04-21T22:27:50.600Z,56.42
2024-04-21T22:30:17.989Z,55.81
2024-04-21T22:32:45.508Z,56.56
2024-04-21T22:35:12.516Z,56.41
2024-04-21T22:37:39.564Z,55.78
2024-04-21T22:40:06.713Z,57.15
2024-04-21T22:42:33.727Z,56.83
2024-04-21T22:45:00.582Z,56.60
2024-04-21T22:47:27.621Z,56.89
2024-04-21T22:49:54.592Z,56.56
2024-04-21T22:52:21.625Z,56.52
2024-04-21T22:54:48.595Z,57.15
2024-04-21T22:57:15.505Z,56.17
2024-04-21T22:59:42.456Z,57.87
2024-04-21T23:02:09.322Z,58.64
2024-04-21T23:04:36.225Z,58.27
2024-04-21T23:07:03.200Z,58.61
2024-04-21T23:09:30.163Z,59.04
2024-04-21T23:11:56.993Z,58.88
2024-04-21T23:14:23.960Z,58.78
2024-04-21T23:16:51.000Z,58.44
2024-04-21T23:19:17.984Z,59.38
2024-04-21T23:21:45.016Z,57.82
2024-04-21T23:24:11.989Z,56.57
2024-04-21T23:26:38.997Z,57.25
2024-04-21T23:29:05.970Z,57.84
2024-04-21T23:31:32.927Z,57.61
2024-04-21T23:34:00.439Z,57.20
2024-04-21T23:36:27.970Z,56.89
2024-04-21T23:38:55.357Z,57.97
2024-04-21T23:41:22.776Z,59.64
2024-04-21T23:43:50.218Z,58.84
2024-04-21T23:46:17.622Z,59.01
2024-04-21T23:48:45.068Z,58.61
2024-04-21T23:51:12.446Z,57.06
2024-04-21T23:53:39.840Z,57.36
2024-04-21T23:56:07.357Z,59.78
2024-04-21T23:58:34.848Z,60.20
